Time;durP1;ratioP1;P1;durP2;ratioP2;P2;SDS_P1;SDS_P2;PMS_P1;PMS_P2;Temp;Humidity;BMP_temperature;BMP_pressure;BME280_temperature;BME280_humidity;BME280_pressure;Samples;Min_cycle;Max_cycle;Signal;HPM_P1;HPM_P2
2022/07/19 11:45:17;;;;;;;3.80;2.30;;;;;;;32.47;27.49;99093.06;418928;1308;648509;-42
2022/07/19 11:55:27;;;;;;;5.30;2.20;;;;;;;31.63;28.14;99080.67;430426;1279;95707;-43
2022/07/19 12:05:37;;;;;;;2.20;1.90;;;;;;;31.44;28.41;99066.82;430450;1279;108720;-41
2022/07/19 12:26:03;;;;;;;3.70;2.10;;;;;;;31.23;28.82;99051.62;431392;1274;107704;-43
2022/07/19 12:36:31;;;;;;;2.50;1.90;;;;;;;31.45;29.11;99054.99;431323;1272;95017;-44
2022/07/19 12:46:38;;;;;;;4.20;1.60;;;;;;;31.59;28.97;99053.56;431144;1274;96089;-43
2022/07/19 12:56:46;;;;;;;10.80;2.60;;;;;;;31.56;29.11;99044.38;431018;1274;108335;-44
2022/07/19 13:06:53;;;;;;;4.40;2.40;;;;;;;31.38;28.99;99034.00;430949;1276;108947;-46
2022/07/19 13:17:01;;;;;;;1.90;1.60;;;;;;;31.28;28.85;99025.98;432329;1273;109064;-44
2022/07/19 13:27:07;;;;;;;2.70;1.60;;;;;;;31.49;28.88;99017.05;431732;1273;95540;-42
2022/07/19 13:37:14;;;;;;;2.50;1.70;;;;;;;31.25;28.78;99009.92;432413;1272;95934;-43
2022/07/19 13:47:21;;;;;;;2.90;1.50;;;;;;;31.21;28.99;99001.23;432295;1272;109727;-41
2022/07/19 13:57:30;;;;;;;1.80;1.60;;;;;;;31.21;28.89;98990.29;431684;1273;109665;-42
2022/07/19 14:07:38;;;;;;;1.80;1.60;;;;;;;31.18;28.61;98982.34;432374;1272;108923;-42
2022/07/19 14:17:46;;;;;;;5.90;2.30;;;;;;;31.14;28.67;98978.98;432406;1273;96130;-46
2022/07/19 14:27:53;;;;;;;7.20;1.80;;;;;;;31.04;28.42;98974.70;432379;1273;109331;-43
2022/07/19 14:38:00;;;;;;;4.50;4.00;;;;;;;31.00;28.43;98967.20;432384;1272;108790;-44
2022/07/19 14:48:10;;;;;;;8.60;2.60;;;;;;;30.73;28.16;98963.63;431838;1273;108981;-45
2022/07/19 14:58:18;;;;;;;6.00;1.70;;;;;;;30.57;28.40;98962.45;432366;1272;96162;-47
2022/07/19 15:08:25;;;;;;;3.30;1.40;;;;;;;30.67;28.61;98953.27;432439;1272;109669;-42
2022/07/19 15:18:31;;;;;;;3.20;2.10;;;;;;;30.68;28.57;98948.30;432376;1272;108866;-45
2022/07/19 15:28:39;;;;;;;2.40;2.20;;;;;;;30.68;28.56;98947.27;432332;1272;108474;-43
2022/07/19 15:38:46;;;;;;;3.70;2.20;;;;;;;30.67;28.71;98947.10;432250;1273;96687;-43
2022/07/19 15:48:54;;;;;;;3.20;2.50;;;;;;;30.61;28.57;98946.66;432306;1273;109745;-45
2022/07/19 15:59:02;;;;;;;6.00;2.40;;;;;;;30.49;28.62;98939.72;432309;1272;108865;-43
2022/07/19 16:09:09;;;;;;;6.30;2.70;;;;;;;30.41;28.69;98941.02;432477;1272;108491;-43
2022/07/19 16:19:15;;;;;;;4.60;2.80;;;;;;;30.27;28.79;98940.61;432207;1272;95714;-43
2022/07/19 16:29:23;;;;;;;4.70;2.40;;;;;;;30.11;28.69;98940.96;431913;1273;109915;-44
2022/07/19 16:39:31;;;;;;;5.50;2.70;;;;;;;29.87;28.80;98940.13;431953;1273;108789;-46
2022/07/19 16:49:44;;;;;;;7.70;3.90;;;;;;;29.79;28.67;98941.22;431932;1273;108752;-43
2022/07/19 16:59:51;;;;;;;11.60;4.70;;;;;;;29.62;28.62;98944.44;431955;1273;96127;-43
2022/07/19 17:09:59;;;;;;;5.70;4.60;;;;;;;29.41;28.68;98940.73;432306;1273;109887;-42
2022/07/19 17:20:27;;;;;;;7.30;4.50;;;;;;;29.16;28.84;98939.85;432392;1272;108816;-48
2022/07/19 17:30:35;;;;;;;10.40;4.30;;;;;;;28.91;29.26;98939.73;432005;1273;109116;-43
2022/07/19 17:40:43;;;;;;;10.70;4.70;;;;;;;28.64;29.68;98942.77;432446;1272;96356;-44
2022/07/19 17:50:50;;;;;;;8.20;4.80;;;;;;;28.32;30.18;98947.28;432501;1272;109778;-42
2022/07/19 18:00:57;;;;;;;12.10;4.60;;;;;;;27.98;31.01;98952.17;432530;1273;108539;-43
2022/07/19 18:11:04;;;;;;;10.60;4.80;;;;;;;27.58;32.15;98957.83;431979;1273;108923;-43
2022/07/19 18:21:12;;;;;;;6.30;3.90;;;;;;;27.03;33.04;98962.91;432394;1273;96608;-41
2022/07/19 18:31:19;;;;;;;8.50;4.80;;;;;;;26.32;34.14;98962.15;432383;1273;109255;-42
2022/07/19 18:41:26;;;;;;;9.40;5.40;;;;;;;25.64;35.34;98964.71;432109;1273;108809;-43
2022/07/19 18:51:32;;;;;;;;;;;;;;;25.00;36.81;98976.88;432410;1273;95708;-44
2022/07/19 19:01:39;;;;;;;8.70;5.50;;;;;;;24.39;37.98;98981.90;432328;1273;95681;-42
2022/07/19 19:11:45;;;;;;;;;;;;;;;23.92;39.26;98994.50;432216;1273;109702;-43
2022/07/19 19:21:52;;;;;;;18.50;6.90;;;;;;;23.42;40.52;99000.25;432463;1273;108786;-45
2022/07/19 19:31:59;;;;;;;17.60;8.20;;;;;;;22.98;41.46;99013.55;432317;1272;109062;-43
2022/07/19 19:42:07;;;;;;;14.50;6.80;;;;;;;22.56;42.26;99011.63;432560;1272;95591;-44
2022/07/19 19:52:14;;;;;;;17.70;8.60;;;;;;;22.24;43.06;99008.66;431948;1273;109704;-43
2022/07/19 20:02:22;;;;;;;17.20;7.90;;;;;;;21.91;43.94;99005.85;432344;1272;108590;-45
2022/07/19 20:12:28;;;;;;;12.40;7.10;;;;;;;21.62;44.54;99016.53;432434;1272;108956;-44
2022/07/19 20:22:36;;;;;;;11.60;7.60;;;;;;;21.37;45.23;99021.15;432525;1272;96173;-44
2022/07/19 20:32:43;;;;;;;13.20;7.70;;;;;;;21.02;45.85;99024.92;432351;1273;95320;-42
2022/07/19 20:42:51;;;;;;;11.10;8.40;;;;;;;20.84;46.22;99025.91;432528;1273;109669;-43
2022/07/19 20:52:59;;;;;;;19.00;10.30;;;;;;;20.66;46.81;99025.73;432369;1273;108686;-46
2022/07/19 21:03:06;;;;;;;15.70;8.40;;;;;;;20.50;47.59;99023.64;432285;1273;108617;-42
2022/07/19 21:13:13;;;;;;;13.80;8.80;;;;;;;20.35;47.99;99024.84;432132;1273;96128;-43
2022/07/19 21:23:21;;;;;;;22.00;10.40;;;;;;;20.35;48.52;99023.62;432196;1273;109765;-43
2022/07/19 21:33:28;;;;;;;23.40;12.70;;;;;;;20.22;49.10;99023.41;432283;1272;108773;-42
2022/07/19 21:43:43;;;;;;;21.10;11.80;;;;;;;20.09;50.09;99024.64;432246;1273;107914;-42
2022/07/19 21:53:49;;;;;;;22.30;12.10;;;;;;;20.14;50.59;99027.30;431386;1274;96170;-42
2022/07/19 22:03:57;;;;;;;27.30;15.90;;;;;;;20.03;51.02;99031.20;432323;1273;108684;-43
2022/07/19 22:24:11;;;;;;;24.70;16.20;;;;;;;19.58;52.01;99039.09;432150;1272;108775;-43
2022/07/19 22:34:18;;;;;;;37.00;22.20;;;;;;;19.49;52.49;99044.92;432333;1273;95681;-43
2022/07/19 22:44:27;;;;;;;37.00;19.70;;;;;;;19.42;52.89;99045.62;432404;1272;109683;-41
2022/07/19 22:54:34;;;;;;;29.40;16.50;;;;;;;19.33;53.43;99048.98;432274;1272;108697;-43
2022/07/19 23:04:41;;;;;;;25.10;16.30;;;;;;;19.31;53.67;99036.61;432202;1272;95283;-42
2022/07/19 23:14:49;;;;;;;24.50;15.30;;;;;;;19.20;53.71;99043.05;432240;1273;109064;-43
2022/07/19 23:24:56;;;;;;;24.10;14.60;;;;;;;18.99;53.93;99051.83;432244;1272;108712;-42
2022/07/19 23:35:04;;;;;;;18.70;13.80;;;;;;;18.99;54.13;99059.23;432334;1273;108821;-44
2022/07/19 23:45:13;;;;;;;25.30;15.90;;;;;;;18.96;54.22;99052.32;432082;1273;310623;-42
2022/07/19 23:55:20;;;;;;;25.40;15.30;;;;;;;18.68;54.71;99047.89;432256;1273;109750;-43
